createdAt,value
2023-05-01T00:01:30.371Z,100708.66
2023-05-01T00:03:56.963Z,100706.75
2023-05-01T00:06:24.131Z,100710.94
2023-05-01T00:08:50.574Z,100705.53
2023-05-01T00:11:17.055Z,100710.84
2023-05-01T00:13:43.454Z,100708.25
2023-05-01T00:16:10.839Z,100700.75
2023-05-01T00:18:37.786Z,100703.81
2023-05-01T00:21:04.526Z,100703.53
2023-05-01T00:23:30.951Z,100705.13
2023-05-01T00:25:57.421Z,100703.34
2023-05-01T00:28:24.063Z,100705.84
2023-05-01T00:30:50.708Z,100707.66
2023-05-01T00:33:17.122Z,100708.06
2023-05-01T00:35:45.016Z,100707.06
2023-05-01T00:38:12.086Z,100703.06
2023-05-01T00:40:45.696Z,100707.75
2023-05-01T00:43:12.960Z,100703.75
2023-05-01T00:45:43.773Z,100700.44
2023-05-01T00:48:10.892Z,100703.06
2023-05-01T00:50:38.121Z,100696.78
2023-05-01T00:53:04.999Z,100703.47
2023-05-01T00:55:33.025Z,100696.56
2023-05-01T00:58:01.170Z,100697.44
2023-05-01T01:00:29.450Z,100705.03
2023-05-01T01:02:56.042Z,100701.66
2023-05-01T01:05:28.292Z,100707.06
2023-05-01T01:08:16.866Z,100700.44
2023-05-01T01:10:52.816Z,100695.25
2023-05-01T01:13:36.815Z,100695.25
2023-05-01T01:16:06.710Z,100698.66
2023-05-01T01:18:40.215Z,100697.66
2023-05-01T01:21:19.957Z,100698.97
2023-05-01T01:24:20.081Z,100699.56
2023-05-01T01:27:11.902Z,100700.38
2023-05-01T01:29:57.516Z,100707.56
2023-05-01T01:32:56.587Z,100695.25
2023-05-01T01:35:27.849Z,100694.16
2023-05-01T01:38:00.448Z,100685.25
2023-05-01T01:40:35.056Z,100685.25
2023-05-01T01:43:05.338Z,100685.84
2023-05-01T01:45:39.630Z,100683.88
2023-05-01T01:48:10.728Z,100683.09
2023-05-01T01:50:39.153Z,100684.88
2023-05-01T01:53:08.798Z,100694.38
2023-05-01T01:55:37.817Z,100702.84
2023-05-01T01:58:06.658Z,100701.34
2023-05-01T02:00:35.756Z,100700.81
2023-05-01T02:03:03.782Z,100698.44
2023-05-01T02:05:32.913Z,100701.22
2023-05-01T02:08:00.584Z,100695.44
2023-05-01T02:10:28.809Z,100696.56
2023-05-01T02:12:58.299Z,100705.25
2023-05-01T02:15:26.844Z,100700.13
2023-05-01T02:17:54.047Z,100699.03
2023-05-01T02:20:21.895Z,100694.44
2023-05-01T02:22:50.798Z,100693.31
2023-05-01T02:25:17.478Z,100696.84
2023-05-01T02:27:48.942Z,100696.94
2023-05-01T02:30:15.505Z,100696.22
2023-05-01T02:32:42.570Z,100696.06
2023-05-01T02:35:09.218Z,100692.88
2023-05-01T02:37:35.788Z,100699.41
2023-05-01T02:40:03.650Z,100698.53
2023-05-01T02:42:32.245Z,100696.81
2023-05-01T02:45:03.070Z,100692.63
2023-05-01T02:47:32.208Z,100686.75
2023-05-01T02:49:59.581Z,100689.03
2023-05-01T02:52:26.513Z,100683.97
2023-05-01T02:54:53.392Z,100678.59
2023-05-01T02:57:20.438Z,100685.88
2023-05-01T02:59:46.972Z,100675.19
2023-05-01T03:02:13.500Z,100680.75
2023-05-01T03:04:40.103Z,100680.06
2023-05-01T03:07:06.600Z,100670.94
2023-05-01T03:09:33.031Z,100669.13
2023-05-01T03:11:59.641Z,100675.31
2023-05-01T03:14:28.453Z,100669.38
2023-05-01T03:16:55.884Z,100671.84
2023-05-01T03:19:22.370Z,100665.97
2023-05-01T03:21:48.809Z,100667.84
2023-05-01T03:24:15.233Z,100671.00
2023-05-01T03:26:41.622Z,100660.78
2023-05-01T03:29:08.596Z,100668.63
2023-05-01T03:31:35.608Z,100670.78
2023-05-01T03:34:02.091Z,100673.50
2023-05-01T03:36:28.558Z,100669.78
2023-05-01T03:38:54.985Z,100680.72
2023-05-01T03:41:21.492Z,100668.56
2023-05-01T03:43:47.898Z,100671.22
2023-05-01T03:46:14.394Z,100668.13
2023-05-01T03:48:40.863Z,100670.84
2023-05-01T03:51:07.362Z,100674.00
2023-05-01T03:53:33.796Z,100673.44
2023-05-01T03:56:00.209Z,100674.44
2023-05-01T03:58:26.945Z,100674.25
2023-05-01T04:00:56.890Z,100668.94
2023-05-01T04:03:23.496Z,100666.16
2023-05-01T04:05:50.054Z,100669.63
2023-05-01T04:08:16.499Z,100663.25
2023-05-01T04:10:42.960Z,100660.84
2023-05-01T04:13:09.469Z,100656.25
2023-05-01T04:15:35.898Z,100658.47
2023-05-01T04:18:02.403Z,100652.88
2023-05-01T04:20:28.904Z,100662.13
2023-05-01T04:22:55.429Z,100658.50
2023-05-01T04:25:21.910Z,100662.44
2023-05-01T04:27:48.343Z,100670.41
2023-05-01T04:30:14.889Z,100672.00
2023-05-01T04:32:41.390Z,100674.59
2023-05-01T04:35:08.912Z,100670.78
2023-05-01T04:37:35.752Z,100673.38
2023-05-01T04:40:02.151Z,100681.38
2023-05-01T04:42:32.211Z,100685.28
2023-05-01T04:45:01.666Z,100684.63
2023-05-01T04:47:28.751Z,100689.19
2023-05-01T04:49:55.418Z,100687.53
2023-05-01T04:52:22.057Z,100684.69
2023-05-01T04:54:48.723Z,100688.78
2023-05-01T04:57:15.264Z,100688.66
2023-05-01T04:59:41.749Z,100686.97
2023-05-01T05:02:08.858Z,100695.75
2023-05-01T05:04:35.387Z,100704.34
2023-05-01T05:07:01.800Z,100701.50
2023-05-01T05:09:28.234Z,100706.13
2023-05-01T05:11:54.657Z,100714.34
2023-05-01T05:14:21.593Z,100715.34
2023-05-01T05:16:48.200Z,100710.81
2023-05-01T05:19:15.107Z,100715.19
2023-05-01T05:21:41.512Z,100714.94
2023-05-01T05:24:07.966Z,100717.50
2023-05-01T05:26:34.372Z,100718.97
2023-05-01T05:29:00.812Z,100721.22
2023-05-01T05:31:27.766Z,100715.81
2023-05-01T05:33:54.342Z,100724.59
2023-05-01T05:36:21.111Z,100721.22
2023-05-01T05:38:47.533Z,100727.78
2023-05-01T05:41:14.025Z,100729.78
2023-05-01T05:43:40.475Z,100728.41
2023-05-01T05:46:07.274Z,100735.41
2023-05-01T05:48:33.740Z,100736.63
2023-05-01T05:51:00.290Z,100741.03
2023-05-01T05:53:26.744Z,100739.00
2023-05-01T05:55:53.176Z,100737.50
2023-05-01T05:58:23.319Z,100740.09
2023-05-01T06:00:50.462Z,100743.25
2023-05-01T06:03:17.668Z,100740.16
2023-05-01T06:05:44.376Z,100736.31
2023-05-01T06:08:11.473Z,100736.88
2023-05-01T06:10:39.671Z,100746.00
2023-05-01T06:13:14.132Z,100744.53
2023-05-01T06:15:41.733Z,100743.53
2023-05-01T06:18:08.609Z,100744.72
2023-05-01T06:20:35.298Z,100738.06
2023-05-01T06:23:01.718Z,100743.13
2023-05-01T06:25:28.184Z,100739.84
2023-05-01T06:27:54.690Z,100744.75
2023-05-01T06:30:21.851Z,100745.97
2023-05-01T06:32:48.871Z,100748.78
2023-05-01T06:35:15.579Z,100748.69
2023-05-01T06:37:42.046Z,100752.97
2023-05-01T06:40:09.707Z,100761.78
2023-05-01T06:42:39.786Z,100755.56
2023-05-01T06:45:07.615Z,100759.19
2023-05-01T06:47:34.274Z,100756.56
2023-05-01T06:50:02.830Z,100756.78
2023-05-01T06:52:31.056Z,100760.16
2023-05-01T06:54:57.486Z,100761.25
2023-05-01T06:57:23.905Z,100751.78
2023-05-01T06:59:50.404Z,100764.97
2023-05-01T07:02:16.915Z,100765.06
2023-05-01T07:04:44.440Z,100762.69
2023-05-01T07:07:11.335Z,100764.78
2023-05-01T07:09:38.723Z,100766.78
2023-05-01T07:12:06.363Z,100760.88
2023-05-01T07:14:34.629Z,100767.19
2023-05-01T07:17:01.715Z,100771.41
2023-05-01T07:19:28.899Z,100770.97
2023-05-01T07:21:55.408Z,100769.97
2023-05-01T07:24:21.837Z,100773.97
2023-05-01T07:26:48.310Z,100768.25
2023-05-01T07:29:16.389Z,100768.16
2023-05-01T07:31:43.377Z,100767.41
2023-05-01T07:34:10.257Z,100780.38
2023-05-01T07:36:36.693Z,100776.56
2023-05-01T07:39:04.061Z,100778.09
2023-05-01T07:41:31.618Z,100772.19
2023-05-01T07:44:00.934Z,100774.19
2023-05-01T07:46:27.599Z,100779.47
2023-05-01T07:48:54.431Z,100772.78
2023-05-01T07:51:21.207Z,100780.78
2023-05-01T07:53:48.627Z,100771.97
2023-05-01T07:56:15.505Z,100771.31
2023-05-01T07:58:42.632Z,100772.78
2023-05-01T08:01:09.201Z,100773.56
2023-05-01T08:03:36.143Z,100773.19
2023-05-01T08:06:02.873Z,100778.69
2023-05-01T08:08:29.409Z,100782.59
2023-05-01T08:10:56.249Z,100781.06
2023-05-01T08:13:22.812Z,100784.97
2023-05-01T08:15:49.446Z,100776.28
2023-05-01T08:18:20.415Z,100787.28
2023-05-01T08:20:48.115Z,100788.09
2023-05-01T08:23:15.714Z,100789.09
2023-05-01T08:25:42.314Z,100787.97
2023-05-01T08:28:09.410Z,100783.59
2023-05-01T08:30:35.901Z,100796.50
2023-05-01T08:33:02.359Z,100790.91
2023-05-01T08:35:29.386Z,100786.19
2023-05-01T08:37:55.930Z,100790.00
2023-05-01T08:40:25.834Z,100782.38
2023-05-01T08:42:52.501Z,100782.38
2023-05-01T08:45:21.215Z,100790.78
2023-05-01T08:47:49.411Z,100779.06
2023-05-01T08:50:17.539Z,100787.31
2023-05-01T08:52:44.390Z,100782.69
2023-05-01T08:55:13.749Z,100784.22
2023-05-01T08:57:45.672Z,100787.53
2023-05-01T09:00:19.071Z,100788.69
2023-05-01T09:02:50.521Z,100787.53
2023-05-01T09:05:18.497Z,100782.22
2023-05-01T09:07:46.518Z,100792.34
2023-05-01T09:10:15.835Z,100784.72
2023-05-01T09:12:46.032Z,100781.94
2023-05-01T09:15:12.949Z,100793.75
2023-05-01T09:17:40.102Z,100790.75
2023-05-01T09:20:07.787Z,100790.44
2023-05-01T09:22:35.369Z,100790.47
2023-05-01T09:25:03.464Z,100788.16
2023-05-01T09:27:35.109Z,100787.16
2023-05-01T09:30:01.586Z,100788.56
2023-05-01T09:32:28.587Z,100790.34
2023-05-01T09:35:08.852Z,100798.03
2023-05-01T09:37:35.403Z,100794.25
2023-05-01T09:40:12.761Z,100785.97
2023-05-01T09:42:41.326Z,100789.34
2023-05-01T09:45:15.017Z,100792.34
2023-05-01T09:47:42.565Z,100792.25
2023-05-01T09:50:09.919Z,100790.06
2023-05-01T09:52:36.364Z,100786.19
2023-05-01T09:55:18.986Z,100781.69
2023-05-01T09:57:46.844Z,100790.38
2023-05-01T10:00:15.554Z,100783.78
2023-05-01T10:02:45.363Z,100792.97
2023-05-01T10:05:12.352Z,100785.22
2023-05-01T10:07:39.258Z,100791.19
2023-05-01T10:10:19.421Z,100783.22
2023-05-01T10:12:46.531Z,100783.97
2023-05-01T10:15:24.785Z,100784.22
2023-05-01T10:17:53.882Z,100785.22
2023-05-01T10:20:20.967Z,100785.13
2023-05-01T10:22:47.983Z,100779.09
2023-05-01T10:25:15.035Z,100781.50
2023-05-01T10:27:42.176Z,100785.00
2023-05-01T10:30:10.065Z,100782.09
2023-05-01T10:32:38.163Z,100781.34
2023-05-01T10:35:15.350Z,100772.66
2023-05-01T10:37:48.634Z,100778.72
2023-05-01T10:40:39.994Z,100775.00
2023-05-01T10:43:28.917Z,100767.38
2023-05-01T10:46:07.399Z,100765.34
2023-05-01T10:48:43.890Z,100758.03
2023-05-01T10:51:24.392Z,100763.53
2023-05-01T10:54:16.769Z,100756.00
2023-05-01T10:56:44.174Z,100761.16
2023-05-01T10:59:11.564Z,100744.50
2023-05-01T11:01:43.256Z,100749.25
2023-05-01T11:04:19.025Z,100739.94
2023-05-01T11:07:08.265Z,100734.16
2023-05-01T11:09:43.761Z,100733.53
2023-05-01T11:12:15.624Z,100739.75
2023-05-01T11:14:54.802Z,100725.94
2023-05-01T11:17:39.446Z,100723.00
2023-05-01T11:20:06.907Z,100725.16
2023-05-01T11:22:34.616Z,100712.78
2023-05-01T11:25:01.932Z,100714.25
2023-05-01T11:27:28.695Z,100710.31
2023-05-01T11:29:55.854Z,100713.03
2023-05-01T11:32:28.230Z,100705.19
2023-05-01T11:34:55.430Z,100697.22
2023-05-01T11:37:44.591Z,100700.00
2023-05-01T11:40:28.006Z,100699.94
2023-05-01T11:43:20.807Z,100693.47
2023-05-01T11:45:53.053Z,100700.28
2023-05-01T11:48:20.953Z,100702.06
2023-05-01T11:50:47.431Z,100697.69
2023-05-01T11:53:18.516Z,100700.75
2023-05-01T11:55:45.567Z,100693.22
2023-05-01T11:58:12.950Z,100692.66
2023-05-01T12:00:43.393Z,100693.72
2023-05-01T12:03:10.311Z,100689.50
2023-05-01T12:05:40.075Z,100683.72
2023-05-01T12:08:12.509Z,100686.06
2023-05-01T12:10:41.047Z,100685.78
2023-05-01T12:13:09.007Z,100680.59
2023-05-01T12:15:37.511Z,100682.97
2023-05-01T12:18:05.737Z,100685.69
2023-05-01T12:20:40.685Z,100685.22
2023-05-01T12:23:10.527Z,100681.47
2023-05-01T12:25:39.350Z,100685.88
2023-05-01T12:28:18.136Z,100684.03
2023-05-01T12:30:46.312Z,100681.69
2023-05-01T12:33:20.340Z,100686.91
2023-05-01T12:35:50.017Z,100682.84
2023-05-01T12:38:23.591Z,100683.69
2023-05-01T12:40:54.926Z,100677.38
2023-05-01T12:43:29.563Z,100682.84
2023-05-01T12:45:56.526Z,100680.34
2023-05-01T12:48:23.976Z,100680.59
2023-05-01T12:50:54.795Z,100684.03
2023-05-01T12:53:22.517Z,100678.56
2023-05-01T12:55:51.893Z,100682.59
2023-05-01T12:58:18.575Z,100682.59
2023-05-01T13:00:50.560Z,100681.91
2023-05-01T13:03:23.696Z,100680.66
2023-05-01T13:05:52.302Z,100674.50
2023-05-01T13:08:34.503Z,100676.31
2023-05-01T13:11:09.852Z,100673.63
2023-05-01T13:13:37.594Z,100674.63
2023-05-01T13:16:15.728Z,100677.75
2023-05-01T13:18:47.337Z,100672.25
2023-05-01T13:21:20.156Z,100665.31
2023-05-01T13:24:01.269Z,100665.84
2023-05-01T13:26:35.260Z,100659.25
2023-05-01T13:29:03.608Z,100654.47
2023-05-01T13:31:30.233Z,100664.81
2023-05-01T13:33:58.954Z,100669.44
2023-05-01T13:36:27.441Z,100670.16
2023-05-01T13:38:56.855Z,100660.63
2023-05-01T13:41:25.931Z,100665.59
2023-05-01T13:43:55.070Z,100662.34
2023-05-01T13:46:23.439Z,100651.47
2023-05-01T13:48:50.455Z,100652.72
2023-05-01T13:51:23.049Z,100652.81
2023-05-01T13:53:50.332Z,100662.84
2023-05-01T13:56:16.862Z,100651.25
2023-05-01T13:58:43.423Z,100653.34
2023-05-01T14:01:15.727Z,100647.78
2023-05-01T14:03:43.335Z,100650.53
2023-05-01T14:06:12.943Z,100652.53
2023-05-01T14:08:39.659Z,100653.16
2023-05-01T14:11:07.780Z,100657.38
2023-05-01T14:13:35.912Z,100653.44
2023-05-01T14:16:26.114Z,100648.50
2023-05-01T14:18:56.798Z,100647.81
2023-05-01T14:21:27.460Z,100652.63
2023-05-01T14:23:55.191Z,100653.81
2023-05-01T14:26:23.963Z,100640.84
2023-05-01T14:28:51.017Z,100644.81
2023-05-01T14:31:27.549Z,100646.63
2023-05-01T14:33:58.732Z,100645.81
2023-05-01T14:36:25.640Z,100651.94
2023-05-01T14:38:53.127Z,100648.19
2023-05-01T14:41:22.718Z,100654.63
2023-05-01T14:43:53.245Z,100658.91
2023-05-01T14:46:31.634Z,100652.97
2023-05-01T14:48:59.706Z,100659.00
2023-05-01T14:51:27.337Z,100656.41
2023-05-01T14:53:54.674Z,100660.63
2023-05-01T14:56:21.697Z,100655.94
2023-05-01T14:58:49.976Z,100651.19
2023-05-01T15:01:23.296Z,100653.94
2023-05-01T15:03:53.244Z,100655.88
2023-05-01T15:06:20.197Z,100655.03
2023-05-01T15:08:47.240Z,100654.34
2023-05-01T15:11:18.706Z,100656.72
2023-05-01T15:13:46.238Z,100655.66
2023-05-01T15:16:16.805Z,100659.06
2023-05-01T15:18:46.511Z,100660.59
2023-05-01T15:21:15.393Z,100660.66
2023-05-01T15:23:45.322Z,100656.06
2023-05-01T15:26:17.942Z,100662.59
2023-05-01T15:29:04.061Z,100667.03
2023-05-01T15:34:17.445Z,100666.78
2023-05-01T15:36:44.102Z,100663.25
2023-05-01T15:39:11.948Z,100669.38
2023-05-01T15:41:38.913Z,100657.38
2023-05-01T15:44:10.787Z,100672.78
2023-05-01T15:46:38.190Z,100673.31
2023-05-01T15:49:09.462Z,100681.19
2023-05-01T15:51:36.520Z,100678.88
2023-05-01T15:54:03.856Z,100677.78
2023-05-01T15:56:34.664Z,100683.22
2023-05-01T15:59:06.847Z,100683.22
2023-05-01T16:01:39.668Z,100693.59
2023-05-01T16:04:06.498Z,100686.03
2023-05-01T16:06:35.065Z,100691.53
2023-05-01T16:09:11.071Z,100689.81
2023-05-01T16:11:45.291Z,100694.44
2023-05-01T16:14:20.935Z,100698.44
2023-05-01T16:16:48.763Z,100698.84
2023-05-01T16:19:24.152Z,100703.34
2023-05-01T16:21:51.782Z,100699.66
2023-05-01T16:24:19.722Z,100704.03
2023-05-01T16:26:46.468Z,100692.88
2023-05-01T16:29:13.131Z,100690.56
2023-05-01T16:31:49.946Z,100689.56
2023-05-01T16:34:20.950Z,100678.47
2023-05-01T16:36:47.560Z,100686.06
2023-05-01T16:39:16.284Z,100685.47
2023-05-01T16:41:45.862Z,100688.44
2023-05-01T16:44:15.076Z,100676.28
2023-05-01T16:46:42.700Z,100682.47
2023-05-01T16:49:13.671Z,100683.25
2023-05-01T16:51:42.132Z,100690.25
2023-05-01T16:54:08.703Z,100685.56
2023-05-01T16:56:35.243Z,100688.06
2023-05-01T16:59:01.795Z,100692.56
2023-05-01T17:01:28.396Z,100688.84
2023-05-01T17:03:55.059Z,100681.88
2023-05-01T17:06:21.740Z,100686.78
2023-05-01T17:08:48.242Z,100688.34
2023-05-01T17:11:15.523Z,100694.03
2023-05-01T17:13:41.965Z,100694.47
2023-05-01T17:16:08.538Z,100701.75
2023-05-01T17:18:35.019Z,100697.47
2023-05-01T17:21:01.452Z,100695.63
2023-05-01T17:23:30.865Z,100694.47
2023-05-01T17:25:57.392Z,100698.94
2023-05-01T17:28:24.484Z,100698.81
2023-05-01T17:30:50.916Z,100702.22
2023-05-01T17:33:17.459Z,100703.72
2023-05-01T17:35:44.679Z,100699.13
2023-05-01T17:38:11.176Z,100698.00
2023-05-01T17:40:37.676Z,100703.63
2023-05-01T17:43:04.255Z,100703.81
2023-05-01T17:45:30.758Z,100699.53
2023-05-01T17:47:58.308Z,100705.81
2023-05-01T17:50:24.901Z,100711.50
2023-05-01T17:52:51.392Z,100708.31
2023-05-01T17:55:18.435Z,100717.81
2023-05-01T17:57:45.910Z,100712.19
2023-05-01T18:00:12.889Z,100711.19
2023-05-01T18:02:39.664Z,100717.56
2023-05-01T18:05:06.798Z,100716.56
2023-05-01T18:07:33.199Z,100719.97
2023-05-01T18:09:59.924Z,100724.94
2023-05-01T18:12:26.842Z,100727.66
2023-05-01T18:14:53.609Z,100734.47
2023-05-01T18:17:22.021Z,100738.31
2023-05-01T18:19:50.833Z,100740.59
2023-05-01T18:22:17.277Z,100739.00
2023-05-01T18:24:43.857Z,100738.31
2023-05-01T18:27:10.318Z,100748.47
2023-05-01T18:29:37.050Z,100743.44
2023-05-01T18:32:03.903Z,100750.03
2023-05-01T18:34:30.391Z,100758.94
2023-05-01T18:36:56.825Z,100756.59
2023-05-01T18:39:23.343Z,100760.56
2023-05-01T18:41:50.497Z,100765.75
2023-05-01T18:44:17.608Z,100766.91
2023-05-01T18:46:44.213Z,100766.81
2023-05-01T18:49:11.087Z,100772.38
2023-05-01T18:51:37.819Z,100770.56
2023-05-01T18:54:05.597Z,100770.69
2023-05-01T18:56:32.069Z,100772.81
2023-05-01T18:58:58.517Z,100774.94
2023-05-01T19:01:25.213Z,100779.34
2023-05-01T19:03:51.839Z,100786.13
2023-05-01T19:06:18.269Z,100783.53
2023-05-01T19:08:44.849Z,100788.88
2023-05-01T19:11:11.349Z,100783.16
2023-05-01T19:13:37.792Z,100784.97
2023-05-01T19:16:04.479Z,100790.16
2023-05-01T19:18:33.110Z,100791.69
2023-05-01T19:20:59.532Z,100784.81
2023-05-01T19:23:27.261Z,100792.09
2023-05-01T19:25:53.662Z,100792.56
2023-05-01T19:28:20.096Z,100793.03
2023-05-01T19:30:46.520Z,100789.97
2023-05-01T19:33:12.983Z,100788.13
2023-05-01T19:35:39.486Z,100787.25
2023-05-01T19:38:06.908Z,100788.94
2023-05-01T19:40:33.314Z,100792.78
2023-05-01T19:43:00.304Z,100792.09
2023-05-01T19:45:26.702Z,100797.63
2023-05-01T19:47:53.105Z,100789.97
2023-05-01T19:50:19.529Z,100794.34
2023-05-01T19:52:45.995Z,100799.63
2023-05-01T19:55:13.167Z,100795.44
2023-05-01T19:57:39.689Z,100795.06
2023-05-01T20:00:07.255Z,100795.06
2023-05-01T20:02:33.773Z,100797.56
2023-05-01T20:05:00.602Z,100803.22
2023-05-01T20:07:28.423Z,100802.44
2023-05-01T20:09:54.903Z,100798.06
2023-05-01T20:12:22.909Z,100805.34
2023-05-01T20:14:49.368Z,100803.78
2023-05-01T20:17:15.788Z,100804.66
2023-05-01T20:19:42.260Z,100815.22
2023-05-01T20:22:08.935Z,100813.97
2023-05-01T20:24:35.346Z,100819.88
2023-05-01T20:27:03.441Z,100820.06
2023-05-01T20:29:29.865Z,100818.91
2023-05-01T20:31:58.898Z,100816.78
2023-05-01T20:34:25.341Z,100815.38
2023-05-01T20:36:52.029Z,100820.66
2023-05-01T20:39:18.772Z,100823.38
2023-05-01T20:41:45.193Z,100817.75
2023-05-01T20:44:11.743Z,100822.34
2023-05-01T20:46:38.248Z,100825.84
2023-05-01T20:49:08.421Z,100818.25
2023-05-01T20:51:34.882Z,100815.53
2023-05-01T20:54:01.525Z,100818.91
2023-05-01T20:56:28.057Z,100818.97
2023-05-01T20:58:54.659Z,100815.31
2023-05-01T21:01:21.246Z,100817.63
2023-05-01T21:03:47.933Z,100810.19
2023-05-01T21:06:15.108Z,100816.81
2023-05-01T21:08:41.615Z,100821.50
2023-05-01T21:11:08.038Z,100811.97
2023-05-01T21:13:34.521Z,100812.06
2023-05-01T21:16:01.124Z,100809.25
2023-05-01T21:18:31.071Z,100806.97
2023-05-01T21:21:01.939Z,100797.97
2023-05-01T21:23:30.385Z,100807.72
2023-05-01T21:25:56.965Z,100809.25
2023-05-01T21:28:23.513Z,100811.84
2023-05-01T21:30:50.453Z,100809.72
2023-05-01T21:33:19.667Z,100806.41
2023-05-01T21:35:46.691Z,100798.03
2023-05-01T21:38:13.563Z,100801.63
2023-05-01T21:40:42.358Z,100800.88
2023-05-01T21:43:09.214Z,100799.75
2023-05-01T21:45:40.186Z,100796.28
2023-05-01T21:48:13.709Z,100798.59
2023-05-01T21:50:40.347Z,100788.28
2023-05-01T21:53:06.816Z,100789.78
2023-05-01T21:55:33.526Z,100798.06
2023-05-01T21:58:00.724Z,100804.97
2023-05-01T22:00:28.006Z,100802.06
2023-05-01T22:02:54.559Z,100794.25
2023-05-01T22:05:23.060Z,100788.94
2023-05-01T22:07:51.947Z,100791.00
2023-05-01T22:10:19.716Z,100792.13
2023-05-01T22:12:48.756Z,100794.09
2023-05-01T22:15:15.742Z,100793.44
2023-05-01T22:17:42.278Z,100798.84
2023-05-01T22:20:09.297Z,100778.44
2023-05-01T22:22:36.967Z,100786.66
2023-05-01T22:25:04.637Z,100784.09
2023-05-01T22:27:32.150Z,100789.91
2023-05-01T22:29:58.852Z,100785.84
2023-05-01T22:32:25.516Z,100773.97
2023-05-01T22:34:52.022Z,100770.50
2023-05-01T22:37:19.433Z,100775.22
2023-05-01T22:39:45.869Z,100783.53
2023-05-01T22:42:12.408Z,100782.13
2023-05-01T22:44:39.256Z,100781.97
2023-05-01T22:47:06.310Z,100781.63
2023-05-01T22:49:32.778Z,100784.94
2023-05-01T22:51:59.726Z,100784.50
2023-05-01T22:54:26.211Z,100786.56
2023-05-01T22:56:52.673Z,100778.81
2023-05-01T22:59:19.658Z,100773.88
2023-05-01T23:01:46.373Z,100784.19
2023-05-01T23:04:13.995Z,100775.47
2023-05-01T23:06:40.907Z,100772.53
2023-05-01T23:09:07.526Z,100772.94
2023-05-01T23:11:34.194Z,100772.69
2023-05-01T23:14:01.277Z,100770.91
2023-05-01T23:16:28.264Z,100774.25
2023-05-01T23:18:55.929Z,100776.47
2023-05-01T23:21:22.365Z,100771.31
2023-05-01T23:23:48.911Z,100774.41
2023-05-01T23:26:28.709Z,100770.72
2023-05-01T23:28:55.227Z,100763.84
2023-05-01T23:31:29.148Z,100754.91
2023-05-01T23:33:55.777Z,100755.41
2023-05-01T23:36:22.850Z,100752.69
2023-05-01T23:38:49.564Z,100753.22
2023-05-01T23:41:16.169Z,100749.91
2023-05-01T23:43:42.794Z,100748.34
2023-05-01T23:46:09.324Z,100747.56
2023-05-01T23:48:37.012Z,100744.38
2023-05-01T23:51:03.600Z,100742.97
2023-05-01T23:53:30.578Z,100734.56
2023-05-01T23:55:57.191Z,100737.06
2023-05-01T23:58:24.420Z,100733.84
